OC447:May 27-June 4,2008                                          
Station Year Month Day Local Decimal Decimal Bottom  Sampling Chlorophyll a Phaeo-pigments Salinity Sigma theta Pressure Temperature Conductivity Fluor Transmittance PAR Oxygen NO3+NO2 Si(OH)4 NH4 PO4
      Time Latitude Longitude Depth(m) Depth(m) (ug/L) (ug/L) Sal00 Sigma-00 (db) T090 C0S/m Upoly0 Xmiss Par Sbeox1ML/L (uM) (uM) (uM) (uM)
                                             
1 2008 5 27 1935 42.34 -69.77 256 245     33.9909 26.6619 249.094 6.7417 3.424691 0.1051 78.9435 8.34E-02 2.0102 17.25 18.34 0.04 1.17
1 2008 5 27 1935 42.34 -69.77 256 200     33.8327 26.5723 201.654 6.4711 3.384095 0.0997 84.1271 8.33E-02 2.1429 13.65 16.14 0.03 1.13
1 2008 5 27 1935 42.34 -69.77 256 150     33.3181 26.3038 151.314 5.3457 3.236983 0.1003 85.1905 8.34E-02 2.5145 11.61 11.02 0.03 0.99
1 2008 5 27 1935 42.34 -69.77 256 100     32.9694 26.1132 97.662 4.5696 3.137334 0.1126 85.7671 8.36E-02 2.7255 11.64 13.42 0.03 0.96
1 2008 5 27 1935 42.34 -69.77 256 50     32.7232 25.9434 50.106 4.3202 3.092882 0.1182 84.5561 9.47E-02 2.7153 11.33 12.27 0.04 1.00
1 2008 5 27 1935 42.34 -69.77 256 40 0.11 0.29 32.6805 25.9078 40.672 4.3359 3.090156 0.1267 84.6177 1.08E-01 2.7245 7.59 5.85 0.30 0.94
1 2008 5 27 1935 42.34 -69.77 256 30 0.60 0.04 32.613 25.704 30.103 5.6938 3.199627 0.2805 84.7534 1.49E-01 2.8855 1.18 2.62 0.06 0.63
1 2008 5 27 1935 42.34 -69.77 256 20 1.40 0.03 32.2569 24.8419 20.095 9.8123 3.523944 0.6986 79.4449 3.12E-01 3.155 0.81 0.79 0.40 0.56
1 2008 5 27 1935 42.34 -69.77 256 10 1.75 0.00 31.8938 24.4333 10.159 10.5633 3.553469 0.5322 80.1726 9.91E-01 3.1696 0.76 0.73 0.03 0.50
1 2008 5 27 1935 42.34 -69.77 256 1 1.41 0.16 31.9368 24.4713 1.319 10.5357 3.554974 0.5504 79.9295 6.56E+00 3.1758 0.77 0.60 0.03 0.38
2 2008 5 27 2033 42.33 -69.92 204 190     33.7659 26.5409 192.459 6.3054 3.362935 0.0995 81.4904 8.39E-02 2.1881 17.45 17.21 1.48 0.90
2 2008 5 27 2033 42.33 -69.92 204 190     33.7655 26.5406 192.458 6.3052 3.362881 0.1018 81.6403 8.36E-02 2.1892 16.85 19.50 0.44 0.95
2 2008 5 27 2033 42.33 -69.92 204 150     33.3262 26.3071 151.592 5.3726 3.240049 0.1005 85.0924 8.40E-02 2.5296 14.12 15.78 0.70 1.06
2 2008 5 27 2033 42.33 -69.92 204 100     33.0713 26.1722 100.094 4.7726 3.163648 0.1008 85.5911 8.68E-02 2.7381 12.49 13.18 0.33 0.96
2 2008 5 27 2033 42.33 -69.92 204 50     32.7202 25.8171 49.042 5.4537 3.189325 0.1657 82.8851 8.83E-02 2.8419 5.96 5.23 0.38 0.59
2 2008 5 27 2033 42.33 -69.92 204 40 0.67 0.05 32.6162 25.5994 38.998 6.5608 3.274947 0.2544 84.7545 8.93E-02 2.9546 3.39 5.87 0.24 0.50
2 2008 5 27 2033 42.33 -69.92 204 30 1.53 0.12 32.4687 25.2914 30.207 7.9676 3.383101 0.9779 80.8026 9.33E-02 3.143 0.71 1.40 0.55 0.36
2 2008 5 27 2033 42.33 -69.92 204 20 2.77 0.00 32.3049 24.979 20.597 9.1907 3.47403 0.9799 79.5981 8.97E-02 3.1833 0.46 1.77 0.44 0.28
2 2008 5 27 2033 42.33 -69.92 204 10 2.09 0.00 30.9471 23.6869 10.36 10.6177 3.462981 0.5567 80.7072 1.41E-01 3.1649 0.23 3.11 1.65 0.20
2 2008 5 27 2033 42.33 -69.92 204 1 1.63 0.00 30.5257 23.2993 1.991 10.9679 3.44972 0.5285 80.5955 2.97E+00 3.1613 0.14 3.02 1.40 0.11
3 2008 5 27 2139 42.32 -70.06 116 100     32.6247 25.8737 101.648 4.2401 3.079948 0.1176 85.5535 8.33E-02 2.6846 10.73 9.83 0.03 0.61
3 2008 5 27 2139 42.32 -70.06 116 50     32.5368 25.7779 50.332 4.4899 3.091308 0.1457 85.1938 8.33E-02 2.7762 9.32 10.31 0.08 0.75
3 2008 5 27 2139 42.32 -70.06 116 40 1.54 0.00 32.4557 25.6322 40.393 5.2399 3.147456 0.2439 85.3992 8.33E-02 2.8699 7.49 5.80 0.40 0.76
3 2008 5 27 2139 42.32 -70.06 116 30 1.28 0.00 32.3965 25.4543 30.369 6.3383 3.23556 0.2411 85.8271 8.70E-02 3.0124 4.01 2.58 0.78 0.51
3 2008 5 27 2139 42.32 -70.06 116 20 1.07 0.00 32.2815 25.1697 21.087 7.79 3.349726 0.2662 84.9796 9.18E-02 3.1446 0.55 2.63 0.76 0.36
3 2008 5 27 2139 42.32 -70.06 116 10 1.56 0.00 29.8902 22.7125 10.103 11.5049 3.429965 0.4684 81.4087 2.06E-01 3.1464 0.43 4.62 0.55 0.18
3 2008 5 27 2139 42.32 -70.06 116 1 0.94 0.16 29.7091 22.4892 2.023 11.9691 3.449516 0.4164 81.3678 4.93E+00 3.127 0.07 2.89 0.26 0.03
4 2008 5 27 2239 42.32 -70.21 43 30 1.21 0.07 31.9279 25.1577 31.119 5.7342 3.142298 0.2044 84.7109 8.33E-02 2.7837 3.58 4.46 2.08 0.16
4 2008 5 27 2239 42.32 -70.21 43 20 6.62 0.00 30.9902 24.1112 20.209 8.1096 3.255289 0.9903 80.3121 8.34E-02 3.1029 0.71 3.87 0.70 0.09
4 2008 5 27 2239 42.32 -70.21 43 10 1.81 0.01 29.7112 22.5811 11.491 11.4618 3.407907 0.5221 81.2369 1.09E-01 3.0974 0.09 5.81 0.69 0.03
4 2008 5 27 2239 42.32 -70.21 43 1 1.37 0.00 29.5711 22.4084 2.412 11.8233 3.422983 0.4571 81.3476 2.04E+00 3.0932 0.52 5.62 0.17 0.04
5 2008 5 27 2336 42.31 -70.36 57 40 0.28 0.48 32.3473 25.6668 41.253 4.101 3.041961 0.1171 80.5361 8.33E-02 2.5939 6.39 12.70 2.13 0.86
5 2008 5 27 2336 42.31 -70.36 57 30 0.21 0.24 31.813 25.1555 31.046 4.9462 3.066171 0.1266 85.3491 8.33E-02 2.8975 3.13 7.40 1.83 0.56
5 2008 5 27 2336 42.31 -70.36 57 20 0.34 0.18 30.9648 24.1643 21.824 7.5844 3.20906 0.1671 85.3295 8.33E-02 2.9626 0.97 5.48 1.42 0.48
5 2008 5 27 2336 42.31 -70.36 57 10 1.47 0.00 29.7752 22.6392 10.787 11.4137 3.410505 0.5324 80.7083 1.14E-01 3.0814 0.06 5.66 1.61 0.39
5 2008 5 27 2336 42.31 -70.36 57 1 1.84 0.01 29.7718 22.6162 2.543 11.529 3.419406 0.5081 80.7666 1.30E+00 3.0848 0.10 6.05 0.43 0.28
6 2008 5 28 0036 42.30 -70.51 74 50     32.2676 25.5733 49.806 4.4018 3.060762 0.1176 82.8622 8.33E-02 2.764 5.30 8.90 2.14 0.69
6 2008 5 28 0036 42.30 -70.51 74 40 0.18 0.27 32.2467 25.5529 40.493 4.4376 3.061564 0.1243 83.4623 8.37E-02 2.7695 5.12 8.81 1.77 0.65
6 2008 5 28 0036 42.30 -70.51 74 30 0.21 0.20 31.9826 25.3008 30.319 4.8441 3.07237 0.1429 84.2951 8.77E-02 2.8536 2.96 6.29 1.78 0.61
6 2008 5 28 0036 42.30 -70.51 74 20 0.90 0.00 31.2319 24.4145 20.38 7.285 3.208871 0.25 83.8798 8.66E-02 2.8561 1.20 7.39 1.49 0.46
6 2008 5 28 0036 42.30 -70.51 74 10 2.70 0.01 29.9133 22.7984 10.476 11.1137 3.399736 0.6411 79.5033 1.25E-01 3.0598 0.09 2.81 1.52 0.26
6 2008 5 28 0036 42.30 -70.51 74 1 2.18 0.01 29.9125 22.7781 2.415 11.2274 3.408805 0.6596 79.4308 1.33E+00 3.079 0.10 2.85 0.03 0.31
7 2008 5 28 0132 42.29 -70.66 43 30 0.53 0.03 31.7956 25.0956 30.827 5.3638 3.099495 0.1573 82.9309 8.33E-02 2.7939 2.30 5.61 1.24 0.6
7 2008 5 28 0132 42.29 -70.66 43 20 2.34 0.01 31.0893 24.1911 20.626 8.094 3.263389 0.7208 77.2436 8.34E-02 2.9702 1.26 4.84 2.37 0.68
7 2008 5 28 0132 42.29 -70.66 43 10 6.03 0.01 30.3693 23.2506 9.874 10.5378 3.39791 1.1714 75.4941 1.19E-01 3.1663 0.10 2.49 2.99 0.24
7 2008 5 28 0132 42.29 -70.66 43 1 5.24 0.00 30.3636 23.243 2.816 10.5561 3.398584 1.1439 75.5939 1.24E+00 3.1733 0.09 2.16 0.28 0.24
8 2008 5 28 0217 42.28 -70.78 22 10 7.34 0.00 30.9016 23.8394 10.056 9.463 3.360263 1.2143 72.2715 9.30E-02 3.1782 0.27 4.10 0.49 0.01
8 2008 5 28 0217 42.28 -70.78 22 1 6.20 0.31 30.7115 23.603 2.293 10.0152 3.387844 1.5552 69.6979 1.66E+00 3.2338 0.09 4.24 0.21 0.2
9 2008 5 28 0506 42.69 -70.70 55 50     32.146 25.4404 50.24 4.7511 3.079611 0.1383 82.2043 8.33E-02 2.8682 3.03 3.41 0.98 0.37
9 2008 5 28 0506 42.69 -70.70 55 40 1.17 0.28 32.0909 25.3612 41.423 5.0785 3.101941 0.2918 83.7887 8.33E-02 2.9591 2.50 2.58 1.20 0.24
9 2008 5 28 0506 42.69 -70.70 55 30 1.72 0.00 32.065 25.3356 31.361 5.125 3.103151 0.2798 83.8323 9.08E-02 2.9871 2.88 2.35 1.78 0.6
9 2008 5 28 0506 42.69 -70.70 55 20 1.76 0.00 32.0191 25.2912 21.449 5.1965 3.104707 0.2843 84.2945 2.06E-01 2.9612 2.18 3.13 1.59 0.32
9 2008 5 28 0506 42.69 -70.70 55 10 5.61 0.01 31.778 25.021 11.369 5.887 3.140937 0.7624 81.0778 9.78E-01 3.0095 1.74 5.53 2.25 0.68
9 2008 5 28 0506 42.69 -70.70 55 1 2.93 0.01 30.6905 23.6123 2.435 9.856 3.37233 0.5821 80.5922 1.23E+01 3.2805 0.09 0.24 0.58 0.03
10 2008 5 28 0600 42.69 -70.56 15 5 4.15 0.00 31.138 24.1135 6.827 8.882 3.333966 1.0133 78.5571 3.96E+01 3.2901 0.10 0.18 0.59 0.03
10 2008 5 28 0600 42.69 -70.56 15 1 6.03 0.00 31.0951 24.0717 3.052 8.9361 3.334234 0.9635 78.3075 1.42E+02 3.3027 0.10 0.20 0.16 0.01
11 2008 5 28 0842 42.69 -70.41 41 30 1.04 0.30 32.2519 25.4877 31.125 5.0878 3.116342 0.2086 84.0776 4.35E+00 2.9275 3.77 2.49 0.78 0.11
11 2008 5 28 0842 42.69 -70.41 41 20 2.90 0.00 32.2191 25.3744 20.636 5.8465 3.177253 0.6323 83.4868 1.05E+01 3.0506 1.82 1.11 1.13 0.08
11 2008 5 28 0842 42.69 -70.41 41 10 2.91 0.00 31.934 24.894 10.356 7.8094 3.318397 0.4401 82.7527 4.11E+01 3.4034 0.06 1.52 1.11 0.05
11 2008 5 28 0842 42.69 -70.41 41 1 1.60 0.13 30.8925 23.7504 2.245 9.9763 3.402543 0.2991 80.9116 1.06E+03 3.2546 0.22 1.59 1.20 0
12 2008 5 28 0931 42.69 -70.26 94 80     32.4284 25.7308 81.785 4.1079 3.051201 0.1113 84.2951 8.73E-02 2.7396 9.03 8.65 0.56 0.53
12 2008 5 28 0931 42.69 -70.26 94 50     32.3734 25.6445 50.779 4.5247 3.08022 0.1428 84.2357 8.10E-01 2.7904 7.59 7.81 0.37 0.45
12 2008 5 28 0931 42.69 -70.26 94 40 0.38 0.25 32.3479 25.5921 40.224 4.8284 3.103186 0.1785 84.1795 2.31E+00 2.8375 6.94 7.10 1.95 0.53
12 2008 5 28 0931 42.69 -70.26 94 30 0.45 0.25 32.3477 25.5627 30.707 5.0955 3.125339 0.2028 84.3773 5.47E+00 2.8837 5.81 4.63 0.88 0.4
12 2008 5 28 0931 42.69 -70.26 94 20 3.81 0.01 32.2802 25.42 21.152 5.8688 3.184621 0.6455 82.0147 1.51E+01 3.0039 3.28 2.37 1.01 0.18
12 2008 5 28 0931 42.69 -70.26 94 10 1.77 0.00 31.2979 24.061 11.118 10.0113 3.446135 0.3208 81.5068 7.50E+01 3.205 0.27 2.50 1.13 0.21
12 2008 5 28 0931 42.69 -70.26 94 1 1.74 0.00 31.3084 24.0659 2.954 10.0304 3.448477 0.2189 81.4533 9.59E+02 3.217 0.21 2.80 1.05 0.19
13 2008 5 28 1023 42.69 -70.11 105 95     32.7779 25.9731 96.676 4.4559 3.111149 0.1066 85.1851 9.27E-02 2.664 9.16 13.41 0.39 0.43
13 2008 5 28 1023 42.69 -70.11 105 50     32.5303 25.7006 51.611 5.157 3.147426 0.1571 84.76 1.92E+00 2.838 5.62 8.12 0.87 0.65
13 2008 5 28 1023 42.69 -70.11 105 40 0.28 0.31 32.4838 25.5941 41.036 5.7603 3.194336 0.1728 84.9245 4.54E+00 2.9391 4.49 2.81 0.66 0.42
13 2008 5 28 1023 42.69 -70.11 105 30 0.57 0.14 32.3909 25.5175 30.915 5.7854 3.18779 0.2081 84.2733 9.28E+00 3.0112 4.22 2.98 0.72 0.33
13 2008 5 28 1023 42.69 -70.11 105 20 1.39 0.00 32.3298 25.3581 20.443 6.68 3.258411 0.2842 84.1735 1.79E+01 3.1276 3.00 4.25 0.94 0.1
13 2008 5 28 1023 42.69 -70.11 105 10 1.51 0.00 31.3887 24.1271 10.633 10.0402 3.457621 0.3304 81.4392 6.16E+01 3.2209 0.23 2.11 1.11 0.01
13 2008 5 28 1023 42.69 -70.11 105 1 1.96 0.00 31.3829 24.0987 2.565 10.1841 3.469104 0.2233 81.2664 1.33E+03 3.2212 0.09 0.22 0.34 0.01
14 2008 5 28 1134 42.68 -69.97 166 150     33.3453 26.3145 152.884 5.4381 3.247485 0.0997 84.6531 8.33E-02 2.4997 13.38 13.47 0.03 0.41
14 2008 5 28 1134 42.68 -69.97 166 100     32.8792 26.0583 101.29 4.4114 3.11624 0.1043 85.5289 1.10E-01 2.7252 10.31 11.55 0.04 0.87
14 2008 5 28 1134 42.68 -69.97 166 50     32.6983 25.8965 51.093 4.5802 3.112881 0.1353 85.7535 1.81E+00 2.7883 8.82 7.14 0.26 0.25
14 2008 5 28 1134 42.68 -69.97 166 40 0.07 0.33 32.6695 25.821 41.574 5.0655 3.151327 0.1387 85.8467 3.56E+00 2.8255 6.53 9.16 1.12 0.58
14 2008 5 28 1134 42.68 -69.97 166 30 0.38 0.17 32.609 25.5848 30.97 6.6292 3.279853 0.2318 84.8363 7.78E+00 2.951 3.11 4.66 0.62 0.47
14 2008 5 28 1134 42.68 -69.97 166 20 2.51 0.00 32.5559 25.3495 20.316 8.0384 3.397034 0.9559 79.3839 1.92E+01 3.0904 0.14 3.48 0.63 0.1
14 2008 5 28 1134 42.68 -69.97 166 10 4.22 0.01 31.721 24.4392 10.463 9.7149 3.462329 0.8519 77.5581 6.08E+01 3.2296 0.10 2.39 0.67 0.2
14 2008 5 28 1134 42.68 -69.97 166 1 2.06 0.28 31.592 24.2463 2.639 10.2769 3.497978 0.3913 77.5968 9.14E+02 3.2402 0.09 3.51 0.46 0.08
15 2008 5 28 1230 42.69 -69.81 234 222     34.158 26.7496 221.952 7.063 3.467632 0.0979 80.1786 8.33E-02 1.9725 16.42 20.96 0.80 0.62
15 2008 5 28 1230 42.69 -69.81 234 200     34.0852 26.7167 198.831 6.8818 3.443613 0.0992 82.0322 8.33E-02 1.9472 17.41 20.52 0.32 0.7
15 2008 5 28 1230 42.69 -69.81 234 150     33.4292 26.3615 150.225 5.6016 3.26904 0.0983 83.8269 8.45E-02 2.3443 13.98 16.03 1.67 0.76
15 2008 5 28 1230 42.69 -69.81 234 100     32.9302 26.0703 99.92 4.6805 3.143556 0.1122 85.6217 1.32E-01 2.7078 10.62 10.16 0.42 0.31
15 2008 5 28 1230 42.69 -69.81 234 50     32.65 25.7094 50.199 5.8939 3.220971 0.1969 85.2706 2.97E+00 2.8944 4.94 4.34 0.88 0.25
15 2008 5 28 1230 42.69 -69.81 234 40 0.53 0.18 32.5994 25.6177 40.036 6.3124 3.252034 0.2635 84.7278 6.87E+00 2.9394 2.31 2.59 1.73 0.2
15 2008 5 28 1230 42.69 -69.81 234 30 3.07 0.00 32.5429 25.3846 29.983 7.7226 3.368667 0.9108 80.9536 1.98E+01 3.0646 0.11 1.23 0.92 0.01
15 2008 5 28 1230 42.69 -69.81 234 20 3.04 0.00 32.5336 25.2633 19.395 8.5043 3.435705 0.673 80.5067 6.22E+01 3.1362 0.10 3.41 0.03 0.06
15 2008 5 28 1230 42.69 -69.81 234 10 2.07 0.01 32.1497 24.6261 9.137 10.6011 3.582414 0.327 80.1856 3.54E+02 3.1114 0.09 0.90 0.51 0.02
15 2008 5 28 1230 42.69 -69.81 234 1 1.32 0.00 32.1497 24.611 2.629 10.688 3.589814 0.2313 80.2739 1.29E+03 3.1143 0.10 0.84 0.04 0.01
16 2008 5 28 1450 42.96 -69.76 181 171     33.625 26.4573 170.772 6.0853 3.329856 0.1026 82.9249 8.33E-02 2.2327 13.62 16.89 0.05 0.71
16 2008 5 28 1450 42.96 -69.76 181 150     33.3069 26.2863 149.866 5.4194 3.242362 0.1011 84.034 8.33E-02 2.4204 13.48 17.77 0.39 0.42
16 2008 5 28 1450 42.96 -69.76 181 100     32.8945 26.0593 99.937 4.5171 3.126508 0.1146 84.5953 8.49E-02 2.6707 10.63 10.96 0.34 0.42
16 2008 5 28 1450 42.96 -69.76 181 50     32.6064 25.7959 50.229 4.8393 3.126943 0.1456 84.6215 7.89E-01 2.7428 8.48 4.86 0.12 0.37
16 2008 5 28 1450 42.96 -69.76 181 40 0.28 0.19 32.504 25.6939 39.789 5.0293 3.133752 0.1674 83.9522 2.20E+00 2.7957 7.88 9.78 1.08 0.49
16 2008 5 28 1450 42.96 -69.76 181 30 0.84 0.06 32.4518 25.5064 29.652 6.2704 3.234684 0.2964 84.6019 6.10E+00 3.129 1.70 0.89 0.86 0.04
16 2008 5 28 1450 42.96 -69.76 181 20 5.05 0.01 32.0661 25.0333 19.804 7.5554 3.30932 1.3194 75.6053 2.94E+01 3.246 1.42 1.62 0.94 0.03
16 2008 5 28 1450 42.96 -69.76 181 10 2.61 0.00 31.4028 24.1973 9.766 9.6741 3.427475 0.6592 75.0925 2.33E+02 3.2752 1.22 2.75 0.03 0.04
16 2008 5 28 1450 42.96 -69.76 181 1 2.25 0.00 31.4119 24.0972 2.068 10.3292 3.484495 0.2651 77.3156 1.24E+03 3.291 1.41 0.88 0.78 0.21
17 2008 5 28 1551 43.02 -69.89 212 206     33.9724 26.6462 205.964 6.7463 3.421523 0.0987 81.758 8.33E-02 2.0296 18.19 19.73 0.01 0.68
17 2008 5 28 1551 43.02 -69.89 212 200     33.9609 26.6409 199.786 6.7171 3.417582 0.0989 83.1124 8.35E-02 2.0295 17.53 19.68 0.04 0.92
17 2008 5 28 1551 43.02 -69.89 212 150     33.1951 26.2302 149.648 5.1374 3.208067 0.1004 84.1146 8.33E-02 2.4808 13.28 14.55 0.03 0.84
17 2008 5 28 1551 43.02 -69.89 212 100     32.7553 25.9682 99.533 4.3306 3.09868 0.1125 83.8362 9.22E-02 2.6588 11.44 10.68 0.03 0.69
17 2008 5 28 1551 43.02 -69.89 212 50     32.5908 25.7661 49.607 4.9987 3.139126 0.1595 85.59 5.38E-01 2.8007 7.50 4.03 0.58 0.59
17 2008 5 28 1551 43.02 -69.89 212 40 0.49 0.12 32.5454 25.6496 39.879 5.702 3.19476 0.2101 85.5595 1.14E+00 2.9221 4.77 1.95 1.03 0.41
17 2008 5 28 1551 43.02 -69.89 212 30 0.85 0.04 32.5093 25.5468 29.648 6.3101 3.243273 0.3187 84.8401 2.66E+00 3.0421 2.17 1.06 0.52 0.87
17 2008 5 28 1551 43.02 -69.89 212 20 1.52 0.00 32.4534 25.4241 19.436 6.9199 3.290305 0.4683 83.0033 5.09E+00 3.2082 0.41 0.61 0.20 0.30
17 2008 5 28 1551 43.02 -69.89 212 10 6.62 0.01 31.074 23.9476 9.724 9.6309 3.391432 1.2468 70.3514 1.31E+01 3.3142 0.09 0.17 0.04 0.22
17 2008 5 28 1551 43.02 -69.89 212 1 3.63 0.01 31.0826 23.8348 2.29 10.3643 3.45458 0.5699 70.7645 1.04E+02 3.2966 0.10 0.08 0.12 0.06
18 2008 5 28 1651 43.07 -70.02 111 100     32.8398 26.0235 103.541 4.4448 3.115806 0.1126 84.2831 8.33E-02 2.6479 11.23 10.58 0.04 0.30
18 2008 5 28 1651 43.07 -70.02 111 50     32.4829 25.681 51.871 4.9959 3.129606 0.1322 84.2373 2.92E-01 2.7868 7.29 6.54 0.04 0.30
18 2008 5 28 1651 43.07 -70.02 111 40 0.39 0.18 32.4542 25.644 42.009 5.1232 3.137476 0.1353 84.276 6.76E-01 2.8254 7.02 6.04 0.66 0.41
18 2008 5 28 1651 43.07 -70.02 111 30 0.35 0.34 32.3565 25.513 31.847 5.5932 3.168395 0.1607 84.2891 1.77E+00 2.951 5.16 4.28 1.05 0.41
18 2008 5 28 1651 43.07 -70.02 111 20 1.22 0.00 32.4517 25.3202 21.671 7.6708 3.3553 0.4166 83.6415 4.98E+00 3.1639 0.03 0.82 0.04 0.17
18 2008 5 28 1651 43.07 -70.02 111 10 7.88 0.00 31.272 24.1489 11.063 9.3345 3.385633 1.4377 71.6551 3.87E+01 3.3291 0.10 0.35 0.08 0.06
18 2008 5 28 1651 43.07 -70.02 111 1 5.12 0.00 31.2133 23.9334 2.389 10.3832 3.469294 0.5785 71.7406 1.85E+02 3.353 0.10 1.34 0.03 0.03
19 2008 5 28 1738 43.12 -70.15 149 140     32.8506 26.0428 141.749 4.344 3.109815 0.1046 80.8216 8.36E-02 2.5042 11.93 14.31 0.17 0.28
19 2008 5 28 1738 43.12 -70.15 149 100     32.7187 25.9432 101.225 4.2901 3.092183 0.1088 84.0263 8.61E-02 2.6181 10.49 11.19 0.04 0.42
19 2008 5 28 1738 43.12 -70.15 149 50     32.4696 25.4987 50.805 6.4449 3.252198 0.2232 85.16 1.25E-01 3.1025 0.35 1.14 0.69 0.40
19 2008 5 28 1738 43.12 -70.15 149 40 0.32 0.21 32.1713 25.3626 40.318 5.6284 3.155364 0.1647 83.5162 2.39E-01 3.0059 4.63 5.54 0.04 0.93
19 2008 5 28 1738 43.12 -70.15 149 30 0.30 0.18 32.0099 25.2403 30.464 5.5814 3.136673 0.163 83.9479 6.19E-01 2.9885 5.35 5.73 0.43 0.71
19 2008 5 28 1738 43.12 -70.15 149 20 6.80 0.00 31.7466 24.9171 20.875 6.534 3.192993 0.9377 78.0704 2.65E+00 3.0863 2.96 2.92 0.34 0.55
19 2008 5 28 1738 43.12 -70.15 149 10 7.88 0.01 31.1697 24.0343 10.523 9.5554 3.394449 1.0886 74.3954 3.97E+01 3.4097 0.10 0.11 0.04 0.52
19 2008 5 28 1738 43.12 -70.15 149 1 4.88 0.00 31.1782 23.95 2.992 10.1182 3.443083 0.7549 74.2183 4.55E+02 3.4284 0.10 0.06 0.03 0.06
20 2008 5 28 1835 43.18 -70.28 119 110     32.5543 25.7801 112.979 4.606 3.105387 0.1253 83.5282 8.34E-02 2.7327 8.04 8.25 0.03 0.48
20 2008 5 28 1835 43.18 -70.28 119 100     32.5173 25.7382 102.719 4.723 3.111657 0.124 84.1103 8.36E-02 2.7645 7.68 7.92 0.07 0.61
20 2008 5 28 1835 43.18 -70.28 119 50     32.1958 25.4047 51.935 5.4323 3.141431 0.131 83.9135 1.44E-01 2.9492 7.62 7.96 0.03 0.54
20 2008 5 28 1835 43.18 -70.28 119 40 0.13 0.46 32.1615 25.3495 41.98 5.6739 3.158419 0.1455 84.0787 2.60E-01 3.0068 3.65 3.92 1.01 0.41
20 2008 5 28 1835 43.18 -70.28 119 30 0.28 0.10 32.1045 25.2895 31.986 5.7999 3.163596 0.1611 83.9778 6.75E-01 3.0461 3.58 3.42 1.85 0.38
20 2008 5 28 1835 43.18 -70.28 119 20 0.52 0.51 32.0376 25.2289 21.523 5.8638 3.162584 0.2275 83.6443 2.36E+00 3.0882 3.45 3.05 1.22 0.28
20 2008 5 28 1835 43.18 -70.28 119 10 2.92 0.18 31.7014 24.8427 11.592 6.8369 3.214057 0.778 80.8702 7.26E+00 3.1355 2.68 2.77 0.21 0.17
20 2008 5 28 1835 43.18 -70.28 119 1 3.26 0.00 31.1425 23.9574 2.389 9.9023 3.421029 0.7961 77.7745 6.91E+01 3.344 0.09 0.47 0.04 0.03
21 2008 5 28 1931 43.23 -70.41 55 40 0.33 0.38 32.18 25.372 41.629 5.6063 3.154324 0.1688 83.8225 1.58E-01 3.0327 2.59 3.43 0.46 0.68
21 2008 5 28 1931 43.23 -70.41 55 30 0.61 0.11 32.1591 25.3368 30.79 5.7647 3.165412 0.1804 83.8389 3.89E-01 3.071 2.17 2.97 0.68 0.66
21 2008 5 28 1931 43.23 -70.41 55 20 2.25 0.00 32.044 25.2196 21.422 5.9834 3.173273 0.4859 82.4622 1.23E+00 3.0808 2.76 2.98 0.91 0.67
21 2008 5 28